sensor_id;sensor_type;location;lat;lon;timestamp;P1;durP1;ratioP1;P2;durP2;ratioP2
4786;SDS011;62338;48.832;9.422;2023-03-20T00:01:58;6.13;;;4.97;;
4786;SDS011;62338;48.832;9.422;2023-03-20T00:04:00;9.73;;;5.40;;
4786;SDS011;62338;48.832;9.422;2023-03-20T00:06:01;5.53;;;4.70;;
4786;SDS011;62338;48.832;9.422;2023-03-20T00:08:03;7.30;;;5.40;;
4786;SDS011;62338;48.832;9.422;2023-03-20T00:10:06;8.37;;;6.23;;
4786;SDS011;62338;48.832;9.422;2023-03-20T00:12:16;6.50;;;5.50;;
4786;SDS011;62338;48.832;9.422;2023-03-20T00:14:23;6.97;;;5.37;;
4786;SDS011;62338;48.832;9.422;2023-03-20T00:16:30;6.93;;;4.47;;
4786;SDS011;62338;48.832;9.422;2023-03-20T00:18:33;6.00;;;4.43;;
4786;SDS011;62338;48.832;9.422;2023-03-20T00:20:36;7.30;;;4.83;;
4786;SDS011;62338;48.832;9.422;2023-03-20T00:22:37;7.87;;;4.80;;
4786;SDS011;62338;48.832;9.422;2023-03-20T00:24:39;5.60;;;4.57;;
4786;SDS011;62338;48.832;9.422;2023-03-20T00:26:42;5.07;;;3.90;;
4786;SDS011;62338;48.832;9.422;2023-03-20T00:28:48;4.83;;;3.67;;
4786;SDS011;62338;48.832;9.422;2023-03-20T00:30:50;5.03;;;4.00;;
4786;SDS011;62338;48.832;9.422;2023-03-20T00:32:52;4.93;;;4.20;;
4786;SDS011;62338;48.832;9.422;2023-03-20T00:34:54;4.63;;;3.60;;
4786;SDS011;62338;48.832;9.422;2023-03-20T00:36:56;4.00;;;2.80;;
4786;SDS011;62338;48.832;9.422;2023-03-20T00:38:58;3.83;;;2.60;;
4786;SDS011;62338;48.832;9.422;2023-03-20T00:41:00;4.27;;;2.87;;
4786;SDS011;62338;48.832;9.422;2023-03-20T00:43:03;3.63;;;2.37;;
4786;SDS011;62338;48.832;9.422;2023-03-20T00:45:05;2.90;;;2.37;;
4786;SDS011;62338;48.832;9.422;2023-03-20T00:49:23;3.63;;;1.90;;
4786;SDS011;62338;48.832;9.422;2023-03-20T00:51:28;3.00;;;1.57;;
4786;SDS011;62338;48.832;9.422;2023-03-20T00:53:29;3.33;;;2.10;;
4786;SDS011;62338;48.832;9.422;2023-03-20T00:55:31;3.33;;;1.90;;
4786;SDS011;62338;48.832;9.422;2023-03-20T00:57:36;3.07;;;2.17;;
4786;SDS011;62338;48.832;9.422;2023-03-20T00:59:51;3.33;;;2.20;;
4786;SDS011;62338;48.832;9.422;2023-03-20T01:01:53;3.17;;;2.00;;
4786;SDS011;62338;48.832;9.422;2023-03-20T01:03:56;2.80;;;2.00;;
4786;SDS011;62338;48.832;9.422;2023-03-20T01:05:59;3.27;;;2.10;;
4786;SDS011;62338;48.832;9.422;2023-03-20T01:08:01;3.77;;;2.30;;
4786;SDS011;62338;48.832;9.422;2023-03-20T01:10:03;2.70;;;1.90;;
4786;SDS011;62338;48.832;9.422;2023-03-20T01:12:05;3.60;;;2.30;;
4786;SDS011;62338;48.832;9.422;2023-03-20T01:14:11;3.07;;;1.90;;
4786;SDS011;62338;48.832;9.422;2023-03-20T01:16:22;4.70;;;2.10;;
4786;SDS011;62338;48.832;9.422;2023-03-20T01:18:26;3.30;;;2.13;;
4786;SDS011;62338;48.832;9.422;2023-03-20T01:20:28;3.23;;;1.90;;
4786;SDS011;62338;48.832;9.422;2023-03-20T01:22:31;3.40;;;2.43;;
4786;SDS011;62338;48.832;9.422;2023-03-20T01:24:32;2.73;;;2.00;;
4786;SDS011;62338;48.832;9.422;2023-03-20T01:28:37;3.37;;;2.40;;
4786;SDS011;62338;48.832;9.422;2023-03-20T01:30:39;3.00;;;2.50;;
4786;SDS011;62338;48.832;9.422;2023-03-20T01:32:41;3.60;;;2.73;;
4786;SDS011;62338;48.832;9.422;2023-03-20T01:34:44;2.93;;;2.20;;
4786;SDS011;62338;48.832;9.422;2023-03-20T01:36:49;3.70;;;2.70;;
4786;SDS011;62338;48.832;9.422;2023-03-20T01:38:54;3.20;;;2.50;;
4786;SDS011;62338;48.832;9.422;2023-03-20T01:43:19;3.73;;;3.07;;
4786;SDS011;62338;48.832;9.422;2023-03-20T01:45:24;3.97;;;2.93;;
4786;SDS011;62338;48.832;9.422;2023-03-20T01:47:29;3.80;;;2.83;;
4786;SDS011;62338;48.832;9.422;2023-03-20T01:52:10;4.37;;;3.27;;
4786;SDS011;62338;48.832;9.422;2023-03-20T01:56:14;6.93;;;4.00;;
4786;SDS011;62338;48.832;9.422;2023-03-20T01:58:19;3.70;;;3.10;;
4786;SDS011;62338;48.832;9.422;2023-03-20T02:00:24;9.27;;;3.50;;
4786;SDS011;62338;48.832;9.422;2023-03-20T02:02:28;6.73;;;4.20;;
4786;SDS011;62338;48.832;9.422;2023-03-20T02:04:33;6.00;;;4.50;;
4786;SDS011;62338;48.832;9.422;2023-03-20T02:06:39;7.27;;;5.40;;
4786;SDS011;62338;48.832;9.422;2023-03-20T02:08:46;6.00;;;4.80;;
4786;SDS011;62338;48.832;9.422;2023-03-20T02:10:50;7.23;;;5.70;;
4786;SDS011;62338;48.832;9.422;2023-03-20T02:12:52;9.33;;;5.73;;
4786;SDS011;62338;48.832;9.422;2023-03-20T02:14:54;8.97;;;5.53;;
4786;SDS011;62338;48.832;9.422;2023-03-20T02:16:56;8.97;;;6.23;;
4786;SDS011;62338;48.832;9.422;2023-03-20T02:18:58;8.30;;;6.43;;
4786;SDS011;62338;48.832;9.422;2023-03-20T02:48:12;10.17;;;7.60;;
4786;SDS011;62338;48.832;9.422;2023-03-20T02:56:57;9.83;;;7.03;;
4786;SDS011;62338;48.832;9.422;2023-03-20T02:59:18;10.17;;;7.23;;
4786;SDS011;62338;48.832;9.422;2023-03-20T03:01:25;8.23;;;6.80;;
4786;SDS011;62338;48.832;9.422;2023-03-20T03:03:35;8.57;;;6.30;;
4786;SDS011;62338;48.832;9.422;2023-03-20T03:05:48;5.63;;;4.70;;
4786;SDS011;62338;48.832;9.422;2023-03-20T03:07:59;5.47;;;4.43;;
4786;SDS011;62338;48.832;9.422;2023-03-20T03:12:27;4.23;;;3.10;;
4786;SDS011;62338;48.832;9.422;2023-03-20T03:16:50;4.40;;;2.40;;
4786;SDS011;62338;48.832;9.422;2023-03-20T03:19:14;4.30;;;2.30;;
4786;SDS011;62338;48.832;9.422;2023-03-20T03:21:19;3.60;;;2.93;;
4786;SDS011;62338;48.832;9.422;2023-03-20T03:23:31;3.17;;;2.37;;
4786;SDS011;62338;48.832;9.422;2023-03-20T03:25:47;4.00;;;2.40;;
4786;SDS011;62338;48.832;9.422;2023-03-20T03:28:05;3.07;;;2.10;;
4786;SDS011;62338;48.832;9.422;2023-03-20T03:30:17;3.90;;;2.03;;
4786;SDS011;62338;48.832;9.422;2023-03-20T03:32:29;4.00;;;2.00;;
4786;SDS011;62338;48.832;9.422;2023-03-20T03:34:46;3.03;;;2.10;;
4786;SDS011;62338;48.832;9.422;2023-03-20T03:39:15;4.93;;;2.30;;
4786;SDS011;62338;48.832;9.422;2023-03-20T03:41:40;3.70;;;2.10;;
4786;SDS011;62338;48.832;9.422;2023-03-20T03:43:56;3.30;;;2.13;;
4786;SDS011;62338;48.832;9.422;2023-03-20T03:46:13;3.80;;;1.77;;
4786;SDS011;62338;48.832;9.422;2023-03-20T03:48:26;3.43;;;1.90;;
4786;SDS011;62338;48.832;9.422;2023-03-20T03:50:37;2.47;;;1.70;;
4786;SDS011;62338;48.832;9.422;2023-03-20T03:52:48;3.40;;;1.97;;
4786;SDS011;62338;48.832;9.422;2023-03-20T03:54:59;2.60;;;1.77;;
4786;SDS011;62338;48.832;9.422;2023-03-20T03:57:11;3.00;;;1.90;;
4786;SDS011;62338;48.832;9.422;2023-03-20T03:59:27;5.27;;;2.40;;
4786;SDS011;62338;48.832;9.422;2023-03-20T04:01:34;4.90;;;1.70;;
4786;SDS011;62338;48.832;9.422;2023-03-20T04:03:37;3.00;;;2.20;;
4786;SDS011;62338;48.832;9.422;2023-03-20T04:05:42;3.70;;;2.00;;
4786;SDS011;62338;48.832;9.422;2023-03-20T04:07:46;2.83;;;1.77;;
4786;SDS011;62338;48.832;9.422;2023-03-20T04:09:53;3.00;;;1.90;;
4786;SDS011;62338;48.832;9.422;2023-03-20T04:11:55;2.57;;;1.50;;
4786;SDS011;62338;48.832;9.422;2023-03-20T04:13:57;2.73;;;1.90;;
4786;SDS011;62338;48.832;9.422;2023-03-20T04:15:58;2.70;;;1.80;;
4786;SDS011;62338;48.832;9.422;2023-03-20T04:18:00;3.20;;;2.00;;
4786;SDS011;62338;48.832;9.422;2023-03-20T04:20:03;3.07;;;1.80;;
4786;SDS011;62338;48.832;9.422;2023-03-20T04:22:05;4.97;;;2.10;;
4786;SDS011;62338;48.832;9.422;2023-03-20T04:24:07;2.30;;;1.50;;
4786;SDS011;62338;48.832;9.422;2023-03-20T04:26:09;6.43;;;1.87;;
4786;SDS011;62338;48.832;9.422;2023-03-20T04:28:11;2.50;;;1.30;;
4786;SDS011;62338;48.832;9.422;2023-03-20T04:30:16;2.20;;;1.47;;
4786;SDS011;62338;48.832;9.422;2023-03-20T04:32:18;2.10;;;1.33;;
4786;SDS011;62338;48.832;9.422;2023-03-20T04:34:20;2.67;;;1.60;;
4786;SDS011;62338;48.832;9.422;2023-03-20T04:36:22;2.70;;;1.50;;
4786;SDS011;62338;48.832;9.422;2023-03-20T04:38:24;2.33;;;1.40;;
4786;SDS011;62338;48.832;9.422;2023-03-20T04:40:25;2.40;;;1.43;;
4786;SDS011;62338;48.832;9.422;2023-03-20T04:42:27;3.70;;;1.50;;
4786;SDS011;62338;48.832;9.422;2023-03-20T04:44:29;2.10;;;1.40;;
4786;SDS011;62338;48.832;9.422;2023-03-20T04:46:31;2.50;;;1.40;;
4786;SDS011;62338;48.832;9.422;2023-03-20T04:48:32;2.63;;;1.70;;
4786;SDS011;62338;48.832;9.422;2023-03-20T04:50:34;7.53;;;1.30;;
4786;SDS011;62338;48.832;9.422;2023-03-20T04:52:36;2.20;;;1.43;;
4786;SDS011;62338;48.832;9.422;2023-03-20T04:54:38;4.97;;;1.57;;
4786;SDS011;62338;48.832;9.422;2023-03-20T04:56:40;3.30;;;1.67;;
4786;SDS011;62338;48.832;9.422;2023-03-20T04:58:42;2.97;;;1.80;;
4786;SDS011;62338;48.832;9.422;2023-03-20T05:00:43;3.20;;;1.50;;
4786;SDS011;62338;48.832;9.422;2023-03-20T05:02:46;2.30;;;1.53;;
4786;SDS011;62338;48.832;9.422;2023-03-20T05:04:47;2.13;;;1.47;;
4786;SDS011;62338;48.832;9.422;2023-03-20T05:06:49;3.50;;;1.90;;
4786;SDS011;62338;48.832;9.422;2023-03-20T05:08:51;2.23;;;1.40;;
4786;SDS011;62338;48.832;9.422;2023-03-20T05:10:53;2.20;;;1.33;;
4786;SDS011;62338;48.832;9.422;2023-03-20T05:12:54;5.13;;;1.60;;
4786;SDS011;62338;48.832;9.422;2023-03-20T05:14:56;2.60;;;1.63;;
4786;SDS011;62338;48.832;9.422;2023-03-20T05:16:58;2.50;;;1.57;;
4786;SDS011;62338;48.832;9.422;2023-03-20T05:19:00;2.57;;;1.60;;
4786;SDS011;62338;48.832;9.422;2023-03-20T05:21:01;3.00;;;1.83;;
4786;SDS011;62338;48.832;9.422;2023-03-20T05:23:04;3.10;;;2.00;;
4786;SDS011;62338;48.832;9.422;2023-03-20T05:25:06;2.90;;;1.77;;
4786;SDS011;62338;48.832;9.422;2023-03-20T05:27:08;3.60;;;2.00;;
4786;SDS011;62338;48.832;9.422;2023-03-20T05:29:11;3.63;;;2.10;;
4786;SDS011;62338;48.832;9.422;2023-03-20T05:31:13;2.33;;;1.53;;
4786;SDS011;62338;48.832;9.422;2023-03-20T05:33:15;2.10;;;1.50;;
4786;SDS011;62338;48.832;9.422;2023-03-20T05:35:17;3.00;;;1.67;;
4786;SDS011;62338;48.832;9.422;2023-03-20T05:37:19;2.97;;;1.53;;
4786;SDS011;62338;48.832;9.422;2023-03-20T05:39:21;2.43;;;1.50;;
4786;SDS011;62338;48.832;9.422;2023-03-20T05:41:23;4.30;;;1.60;;
4786;SDS011;62338;48.832;9.422;2023-03-20T05:43:25;2.27;;;1.57;;
4786;SDS011;62338;48.832;9.422;2023-03-20T05:45:28;2.90;;;1.90;;
4786;SDS011;62338;48.832;9.422;2023-03-20T05:47:30;2.37;;;1.47;;
4786;SDS011;62338;48.832;9.422;2023-03-20T05:49:32;3.33;;;1.63;;
4786;SDS011;62338;48.832;9.422;2023-03-20T05:51:34;2.63;;;1.67;;
4786;SDS011;62338;48.832;9.422;2023-03-20T05:53:35;3.80;;;1.50;;
4786;SDS011;62338;48.832;9.422;2023-03-20T05:55:37;2.10;;;1.40;;
4786;SDS011;62338;48.832;9.422;2023-03-20T05:57:39;3.33;;;1.53;;
4786;SDS011;62338;48.832;9.422;2023-03-20T05:59:41;9.73;;;1.70;;
4786;SDS011;62338;48.832;9.422;2023-03-20T06:01:43;2.70;;;1.53;;
4786;SDS011;62338;48.832;9.422;2023-03-20T06:03:45;2.77;;;1.70;;
4786;SDS011;62338;48.832;9.422;2023-03-20T06:05:48;2.70;;;1.47;;
4786;SDS011;62338;48.832;9.422;2023-03-20T06:07:49;2.80;;;1.53;;
4786;SDS011;62338;48.832;9.422;2023-03-20T06:09:51;3.10;;;1.80;;
4786;SDS011;62338;48.832;9.422;2023-03-20T06:11:53;2.80;;;1.60;;
4786;SDS011;62338;48.832;9.422;2023-03-20T06:13:55;2.53;;;1.57;;
4786;SDS011;62338;48.832;9.422;2023-03-20T06:15:59;2.83;;;1.50;;
4786;SDS011;62338;48.832;9.422;2023-03-20T06:18:01;2.70;;;1.67;;
4786;SDS011;62338;48.832;9.422;2023-03-20T06:20:03;3.30;;;1.50;;
4786;SDS011;62338;48.832;9.422;2023-03-20T06:22:05;2.73;;;1.77;;
4786;SDS011;62338;48.832;9.422;2023-03-20T06:24:07;3.80;;;1.70;;
4786;SDS011;62338;48.832;9.422;2023-03-20T06:26:09;3.10;;;1.50;;
4786;SDS011;62338;48.832;9.422;2023-03-20T06:28:12;2.90;;;1.50;;
4786;SDS011;62338;48.832;9.422;2023-03-20T06:30:14;2.30;;;1.50;;
4786;SDS011;62338;48.832;9.422;2023-03-20T06:32:16;2.27;;;1.40;;
4786;SDS011;62338;48.832;9.422;2023-03-20T06:34:18;3.90;;;1.60;;
4786;SDS011;62338;48.832;9.422;2023-03-20T06:36:20;3.30;;;1.67;;
4786;SDS011;62338;48.832;9.422;2023-03-20T06:38:22;2.67;;;1.90;;
4786;SDS011;62338;48.832;9.422;2023-03-20T06:40:24;2.90;;;1.63;;
4786;SDS011;62338;48.832;9.422;2023-03-20T06:42:27;2.50;;;1.73;;
4786;SDS011;62338;48.832;9.422;2023-03-20T06:44:29;2.93;;;1.70;;
4786;SDS011;62338;48.832;9.422;2023-03-20T06:46:31;2.50;;;1.60;;
4786;SDS011;62338;48.832;9.422;2023-03-20T06:48:33;2.20;;;1.57;;
4786;SDS011;62338;48.832;9.422;2023-03-20T06:50:35;3.27;;;1.60;;
4786;SDS011;62338;48.832;9.422;2023-03-20T06:52:37;5.30;;;1.67;;
4786;SDS011;62338;48.832;9.422;2023-03-20T06:54:40;2.27;;;1.40;;
4786;SDS011;62338;48.832;9.422;2023-03-20T06:56:42;2.33;;;1.50;;
4786;SDS011;62338;48.832;9.422;2023-03-20T06:58:44;2.70;;;1.67;;
4786;SDS011;62338;48.832;9.422;2023-03-20T07:00:46;3.90;;;1.60;;
4786;SDS011;62338;48.832;9.422;2023-03-20T07:02:47;2.70;;;1.63;;
4786;SDS011;62338;48.832;9.422;2023-03-20T07:04:49;2.93;;;1.40;;
4786;SDS011;62338;48.832;9.422;2023-03-20T07:06:51;2.47;;;1.57;;
4786;SDS011;62338;48.832;9.422;2023-03-20T07:08:53;2.30;;;1.23;;
4786;SDS011;62338;48.832;9.422;2023-03-20T07:10:54;3.03;;;1.77;;
4786;SDS011;62338;48.832;9.422;2023-03-20T07:12:56;3.77;;;1.60;;
4786;SDS011;62338;48.832;9.422;2023-03-20T07:14:58;2.23;;;1.43;;
4786;SDS011;62338;48.832;9.422;2023-03-20T07:17:00;8.13;;;1.47;;
4786;SDS011;62338;48.832;9.422;2023-03-20T07:19:02;5.70;;;1.50;;
4786;SDS011;62338;48.832;9.422;2023-03-20T07:21:04;2.23;;;1.47;;
4786;SDS011;62338;48.832;9.422;2023-03-20T07:23:07;4.93;;;1.73;;
4786;SDS011;62338;48.832;9.422;2023-03-20T07:25:09;3.30;;;1.90;;
4786;SDS011;62338;48.832;9.422;2023-03-20T07:27:11;2.70;;;1.40;;
4786;SDS011;62338;48.832;9.422;2023-03-20T07:29:13;2.53;;;1.50;;
4786;SDS011;62338;48.832;9.422;2023-03-20T07:31:18;2.53;;;1.27;;
4786;SDS011;62338;48.832;9.422;2023-03-20T07:33:22;3.80;;;1.60;;
4786;SDS011;62338;48.832;9.422;2023-03-20T07:35:24;7.60;;;1.80;;
4786;SDS011;62338;48.832;9.422;2023-03-20T07:37:25;2.30;;;1.30;;
4786;SDS011;62338;48.832;9.422;2023-03-20T07:39:27;3.80;;;2.00;;
4786;SDS011;62338;48.832;9.422;2023-03-20T07:41:29;3.40;;;1.50;;
4786;SDS011;62338;48.832;9.422;2023-03-20T07:43:31;3.33;;;1.90;;
4786;SDS011;62338;48.832;9.422;2023-03-20T07:45:33;3.50;;;1.70;;
4786;SDS011;62338;48.832;9.422;2023-03-20T07:47:36;4.47;;;1.90;;
4786;SDS011;62338;48.832;9.422;2023-03-20T07:49:37;3.70;;;1.77;;
4786;SDS011;62338;48.832;9.422;2023-03-20T07:51:39;2.80;;;1.77;;
4786;SDS011;62338;48.832;9.422;2023-03-20T07:53:41;2.80;;;1.83;;
4786;SDS011;62338;48.832;9.422;2023-03-20T07:55:43;3.77;;;1.77;;
4786;SDS011;62338;48.832;9.422;2023-03-20T07:57:46;2.70;;;1.60;;
4786;SDS011;62338;48.832;9.422;2023-03-20T07:59:49;2.30;;;1.40;;
4786;SDS011;62338;48.832;9.422;2023-03-20T08:01:51;3.13;;;1.80;;
4786;SDS011;62338;48.832;9.422;2023-03-20T08:03:53;3.33;;;1.70;;
4786;SDS011;62338;48.832;9.422;2023-03-20T08:05:55;4.03;;;1.70;;
4786;SDS011;62338;48.832;9.422;2023-03-20T08:07:57;3.47;;;1.83;;
4786;SDS011;62338;48.832;9.422;2023-03-20T08:10:00;4.77;;;1.57;;
4786;SDS011;62338;48.832;9.422;2023-03-20T08:12:03;8.40;;;1.53;;
4786;SDS011;62338;48.832;9.422;2023-03-20T08:14:06;3.37;;;1.90;;
4786;SDS011;62338;48.832;9.422;2023-03-20T08:16:08;3.70;;;1.30;;
4786;SDS011;62338;48.832;9.422;2023-03-20T08:18:09;2.60;;;1.67;;
4786;SDS011;62338;48.832;9.422;2023-03-20T08:20:12;2.43;;;1.43;;
4786;SDS011;62338;48.832;9.422;2023-03-20T08:22:14;3.80;;;1.60;;
4786;SDS011;62338;48.832;9.422;2023-03-20T08:24:16;3.83;;;1.60;;
4786;SDS011;62338;48.832;9.422;2023-03-20T08:26:18;3.83;;;1.60;;
4786;SDS011;62338;48.832;9.422;2023-03-20T08:28:20;2.40;;;1.30;;
4786;SDS011;62338;48.832;9.422;2023-03-20T08:30:22;2.60;;;1.40;;
4786;SDS011;62338;48.832;9.422;2023-03-20T08:32:23;5.70;;;1.57;;
4786;SDS011;62338;48.832;9.422;2023-03-20T08:34:26;2.90;;;1.40;;
4786;SDS011;62338;48.832;9.422;2023-03-20T08:36:28;4.77;;;1.97;;
4786;SDS011;62338;48.832;9.422;2023-03-20T08:38:30;3.70;;;1.60;;
4786;SDS011;62338;48.832;9.422;2023-03-20T08:40:32;2.60;;;1.40;;
4786;SDS011;62338;48.832;9.422;2023-03-20T08:42:33;4.00;;;1.60;;
4786;SDS011;62338;48.832;9.422;2023-03-20T08:44:36;3.57;;;1.57;;
4786;SDS011;62338;48.832;9.422;2023-03-20T08:46:37;3.10;;;1.63;;
4786;SDS011;62338;48.832;9.422;2023-03-20T08:48:40;3.10;;;1.70;;
4786;SDS011;62338;48.832;9.422;2023-03-20T08:50:41;3.70;;;1.77;;
4786;SDS011;62338;48.832;9.422;2023-03-20T08:52:45;3.53;;;1.50;;
4786;SDS011;62338;48.832;9.422;2023-03-20T08:54:47;4.93;;;1.37;;
4786;SDS011;62338;48.832;9.422;2023-03-20T08:56:49;6.53;;;1.50;;
4786;SDS011;62338;48.832;9.422;2023-03-20T08:58:51;3.37;;;1.50;;
4786;SDS011;62338;48.832;9.422;2023-03-20T09:00:56;3.10;;;1.50;;
4786;SDS011;62338;48.832;9.422;2023-03-20T09:02:57;2.90;;;1.53;;
4786;SDS011;62338;48.832;9.422;2023-03-20T09:04:59;2.97;;;1.60;;
4786;SDS011;62338;48.832;9.422;2023-03-20T09:07:01;4.10;;;1.80;;
4786;SDS011;62338;48.832;9.422;2023-03-20T09:09:03;4.87;;;1.80;;
4786;SDS011;62338;48.832;9.422;2023-03-20T09:11:05;4.63;;;1.73;;
4786;SDS011;62338;48.832;9.422;2023-03-20T09:13:08;3.47;;;1.60;;
4786;SDS011;62338;48.832;9.422;2023-03-20T09:15:27;3.80;;;1.30;;
4786;SDS011;62338;48.832;9.422;2023-03-20T09:17:29;3.00;;;1.60;;
4786;SDS011;62338;48.832;9.422;2023-03-20T09:19:32;2.83;;;1.53;;
4786;SDS011;62338;48.832;9.422;2023-03-20T09:21:34;4.23;;;2.00;;
4786;SDS011;62338;48.832;9.422;2023-03-20T09:23:36;3.20;;;1.80;;
4786;SDS011;62338;48.832;9.422;2023-03-20T09:25:38;3.70;;;1.70;;
4786;SDS011;62338;48.832;9.422;2023-03-20T09:27:40;2.87;;;1.60;;
4786;SDS011;62338;48.832;9.422;2023-03-20T09:29:42;4.80;;;1.70;;
4786;SDS011;62338;48.832;9.422;2023-03-20T09:31:43;3.23;;;1.73;;
4786;SDS011;62338;48.832;9.422;2023-03-20T09:33:45;5.03;;;1.90;;
4786;SDS011;62338;48.832;9.422;2023-03-20T09:39:03;3.50;;;1.80;;
4786;SDS011;62338;48.832;9.422;2023-03-20T09:41:05;4.10;;;1.80;;
4786;SDS011;62338;48.832;9.422;2023-03-20T09:48:18;3.30;;;1.90;;
4786;SDS011;62338;48.832;9.422;2023-03-20T09:53:38;3.07;;;1.63;;
4786;SDS011;62338;48.832;9.422;2023-03-20T09:55:44;6.17;;;2.00;;
4786;SDS011;62338;48.832;9.422;2023-03-20T09:57:48;4.20;;;1.80;;
4786;SDS011;62338;48.832;9.422;2023-03-20T10:02:22;3.33;;;1.77;;
4786;SDS011;62338;48.832;9.422;2023-03-20T10:04:31;3.70;;;2.07;;
4786;SDS011;62338;48.832;9.422;2023-03-20T10:06:34;4.17;;;1.80;;
4786;SDS011;62338;48.832;9.422;2023-03-20T10:08:37;3.87;;;1.93;;
4786;SDS011;62338;48.832;9.422;2023-03-20T10:13:02;3.20;;;1.50;;
4786;SDS011;62338;48.832;9.422;2023-03-20T10:20:33;5.23;;;2.13;;
4786;SDS011;62338;48.832;9.422;2023-03-20T10:22:48;2.70;;;1.40;;
4786;SDS011;62338;48.832;9.422;2023-03-20T10:24:57;2.73;;;1.40;;
4786;SDS011;62338;48.832;9.422;2023-03-20T10:27:14;3.60;;;1.67;;
4786;SDS011;62338;48.832;9.422;2023-03-20T10:32:01;6.40;;;2.60;;
4786;SDS011;62338;48.832;9.422;2023-03-20T10:36:44;4.37;;;1.90;;
4786;SDS011;62338;48.832;9.422;2023-03-20T10:38:55;4.50;;;2.10;;
4786;SDS011;62338;48.832;9.422;2023-03-20T10:41:07;3.70;;;2.03;;
4786;SDS011;62338;48.832;9.422;2023-03-20T10:43:20;4.13;;;1.70;;
4786;SDS011;62338;48.832;9.422;2023-03-20T10:45:32;3.67;;;1.70;;
4786;SDS011;62338;48.832;9.422;2023-03-20T10:47:36;4.43;;;2.00;;
4786;SDS011;62338;48.832;9.422;2023-03-20T10:49:45;3.67;;;2.10;;
4786;SDS011;62338;48.832;9.422;2023-03-20T10:51:53;3.47;;;2.20;;
4786;SDS011;62338;48.832;9.422;2023-03-20T10:53:59;6.20;;;2.20;;
4786;SDS011;62338;48.832;9.422;2023-03-20T10:56:05;5.07;;;2.00;;
4786;SDS011;62338;48.832;9.422;2023-03-20T10:58:14;3.67;;;2.33;;
4786;SDS011;62338;48.832;9.422;2023-03-20T11:00:23;6.50;;;2.20;;
4786;SDS011;62338;48.832;9.422;2023-03-20T11:02:28;4.17;;;2.10;;
4786;SDS011;62338;48.832;9.422;2023-03-20T11:04:32;6.50;;;2.00;;
4786;SDS011;62338;48.832;9.422;2023-03-20T11:06:37;3.43;;;1.87;;
4786;SDS011;62338;48.832;9.422;2023-03-20T11:08:48;6.83;;;2.40;;
4786;SDS011;62338;48.832;9.422;2023-03-20T11:10:59;4.50;;;2.53;;
4786;SDS011;62338;48.832;9.422;2023-03-20T11:13:03;4.10;;;2.10;;
4786;SDS011;62338;48.832;9.422;2023-03-20T11:15:37;3.40;;;1.87;;
4786;SDS011;62338;48.832;9.422;2023-03-20T11:17:39;5.07;;;2.17;;
4786;SDS011;62338;48.832;9.422;2023-03-20T11:19:41;4.60;;;2.20;;
4786;SDS011;62338;48.832;9.422;2023-03-20T11:21:44;3.53;;;2.30;;
4786;SDS011;62338;48.832;9.422;2023-03-20T11:23:57;4.87;;;2.97;;
4786;SDS011;62338;48.832;9.422;2023-03-20T11:26:00;5.20;;;2.63;;
4786;SDS011;62338;48.832;9.422;2023-03-20T11:28:29;5.70;;;3.10;;
4786;SDS011;62338;48.832;9.422;2023-03-20T11:30:39;4.10;;;2.60;;
4786;SDS011;62338;48.832;9.422;2023-03-20T11:32:54;5.37;;;3.03;;
4786;SDS011;62338;48.832;9.422;2023-03-20T11:35:08;4.80;;;2.80;;
4786;SDS011;62338;48.832;9.422;2023-03-20T11:37:32;6.17;;;3.20;;
4786;SDS011;62338;48.832;9.422;2023-03-20T11:39:36;5.47;;;3.60;;
4786;SDS011;62338;48.832;9.422;2023-03-20T11:41:41;9.53;;;3.80;;
4786;SDS011;62338;48.832;9.422;2023-03-20T11:43:45;5.67;;;3.63;;
4786;SDS011;62338;48.832;9.422;2023-03-20T11:45:48;6.10;;;3.53;;
4786;SDS011;62338;48.832;9.422;2023-03-20T11:47:55;9.43;;;5.17;;
4786;SDS011;62338;48.832;9.422;2023-03-20T11:49:58;5.73;;;3.90;;
4786;SDS011;62338;48.832;9.422;2023-03-20T11:52:08;6.57;;;4.03;;
4786;SDS011;62338;48.832;9.422;2023-03-20T11:54:15;6.73;;;4.90;;
4786;SDS011;62338;48.832;9.422;2023-03-20T11:56:39;7.03;;;4.37;;
4786;SDS011;62338;48.832;9.422;2023-03-20T11:58:55;7.33;;;4.60;;
4786;SDS011;62338;48.832;9.422;2023-03-20T12:01:00;12.53;;;5.13;;
4786;SDS011;62338;48.832;9.422;2023-03-20T12:03:03;10.73;;;4.00;;
4786;SDS011;62338;48.832;9.422;2023-03-20T12:05:33;6.57;;;4.50;;
4786;SDS011;62338;48.832;9.422;2023-03-20T12:07:37;8.40;;;4.93;;
4786;SDS011;62338;48.832;9.422;2023-03-20T12:09:41;8.00;;;4.70;;
4786;SDS011;62338;48.832;9.422;2023-03-20T12:11:54;8.27;;;4.90;;
4786;SDS011;62338;48.832;9.422;2023-03-20T12:14:00;10.73;;;4.53;;
4786;SDS011;62338;48.832;9.422;2023-03-20T12:16:12;9.80;;;5.37;;
4786;SDS011;62338;48.832;9.422;2023-03-20T12:18:30;8.67;;;5.07;;
4786;SDS011;62338;48.832;9.422;2023-03-20T12:23:11;6.40;;;4.30;;
4786;SDS011;62338;48.832;9.422;2023-03-20T12:27:28;9.00;;;5.03;;
4786;SDS011;62338;48.832;9.422;2023-03-20T12:29:37;9.77;;;5.97;;
4786;SDS011;62338;48.832;9.422;2023-03-20T12:31:47;8.67;;;4.93;;
4786;SDS011;62338;48.832;9.422;2023-03-20T12:36:24;9.40;;;5.23;;
4786;SDS011;62338;48.832;9.422;2023-03-20T12:38:32;11.27;;;5.50;;
4786;SDS011;62338;48.832;9.422;2023-03-20T12:40:40;9.73;;;5.67;;
4786;SDS011;62338;48.832;9.422;2023-03-20T12:47:25;8.27;;;5.23;;
4786;SDS011;62338;48.832;9.422;2023-03-20T12:49:40;7.67;;;4.80;;
4786;SDS011;62338;48.832;9.422;2023-03-20T12:52:18;14.83;;;6.83;;
4786;SDS011;62338;48.832;9.422;2023-03-20T13:02:22;11.00;;;4.90;;
4786;SDS011;62338;48.832;9.422;2023-03-20T13:04:49;7.50;;;3.93;;
4786;SDS011;62338;48.832;9.422;2023-03-20T13:07:02;7.10;;;4.23;;
4786;SDS011;62338;48.832;9.422;2023-03-20T13:11:40;8.30;;;4.50;;
4786;SDS011;62338;48.832;9.422;2023-03-20T13:13:58;6.10;;;4.20;;
4786;SDS011;62338;48.832;9.422;2023-03-20T13:21:05;10.67;;;4.97;;
4786;SDS011;62338;48.832;9.422;2023-03-20T13:23:27;8.00;;;4.10;;
4786;SDS011;62338;48.832;9.422;2023-03-20T13:27:52;7.67;;;4.40;;
4786;SDS011;62338;48.832;9.422;2023-03-20T13:32:33;6.63;;;4.30;;
4786;SDS011;62338;48.832;9.422;2023-03-20T13:37:09;10.17;;;5.03;;
4786;SDS011;62338;48.832;9.422;2023-03-20T13:39:28;5.80;;;4.00;;
4786;SDS011;62338;48.832;9.422;2023-03-20T13:41:34;6.50;;;4.03;;
4786;SDS011;62338;48.832;9.422;2023-03-20T13:43:42;6.40;;;4.20;;
4786;SDS011;62338;48.832;9.422;2023-03-20T13:45:50;7.00;;;4.73;;
4786;SDS011;62338;48.832;9.422;2023-03-20T13:52:52;6.93;;;4.17;;
4786;SDS011;62338;48.832;9.422;2023-03-20T13:57:34;8.43;;;4.60;;
4786;SDS011;62338;48.832;9.422;2023-03-20T14:05:09;8.70;;;5.33;;
4786;SDS011;62338;48.832;9.422;2023-03-20T14:07:31;8.80;;;5.27;;
4786;SDS011;62338;48.832;9.422;2023-03-20T14:09:37;7.77;;;4.50;;
4786;SDS011;62338;48.832;9.422;2023-03-20T14:11:39;7.53;;;4.27;;
4786;SDS011;62338;48.832;9.422;2023-03-20T14:13:44;9.10;;;4.77;;
4786;SDS011;62338;48.832;9.422;2023-03-20T14:15:52;7.83;;;4.37;;
4786;SDS011;62338;48.832;9.422;2023-03-20T14:17:56;9.73;;;4.50;;
4786;SDS011;62338;48.832;9.422;2023-03-20T14:20:08;7.63;;;4.47;;
4786;SDS011;62338;48.832;9.422;2023-03-20T14:22:25;8.93;;;4.87;;
4786;SDS011;62338;48.832;9.422;2023-03-20T14:24:32;8.27;;;4.40;;
4786;SDS011;62338;48.832;9.422;2023-03-20T14:26:37;7.53;;;4.37;;
4786;SDS011;62338;48.832;9.422;2023-03-20T14:28:43;8.40;;;5.00;;
4786;SDS011;62338;48.832;9.422;2023-03-20T14:33:25;9.50;;;4.20;;
4786;SDS011;62338;48.832;9.422;2023-03-20T14:35:30;7.20;;;4.13;;
4786;SDS011;62338;48.832;9.422;2023-03-20T14:38:01;7.73;;;4.33;;
4786;SDS011;62338;48.832;9.422;2023-03-20T14:40:17;9.00;;;5.90;;
4786;SDS011;62338;48.832;9.422;2023-03-20T14:42:34;12.63;;;8.30;;
4786;SDS011;62338;48.832;9.422;2023-03-20T14:47:09;14.13;;;7.50;;
4786;SDS011;62338;48.832;9.422;2023-03-20T14:49:33;9.80;;;4.20;;
4786;SDS011;62338;48.832;9.422;2023-03-20T14:51:40;8.30;;;4.10;;
4786;SDS011;62338;48.832;9.422;2023-03-20T14:53:49;8.33;;;4.77;;
4786;SDS011;62338;48.832;9.422;2023-03-20T14:56:05;8.60;;;4.70;;
4786;SDS011;62338;48.832;9.422;2023-03-20T15:00:50;12.80;;;8.00;;
4786;SDS011;62338;48.832;9.422;2023-03-20T15:03:13;9.40;;;4.70;;